Impacts METAR Board
IDs:

KGPT - Gulfport-Biloxi Intl, MS, US

Updated at: 2000 UTC 15 Aug 2018
Potential Impact None Slight Moderate High
Time 15/08Z 15/09Z 15/10Z 15/11Z 15/12Z 15/13Z 15/14Z 15/15Z 15/16Z 15/17Z 15/18Z 15/19Z 15/20Z
Temp79 78 78 77 78 83 86 87 89 89 90 90 91
Dewpt75 75 75 75 75 76 75 76 77 77 76 74 76
Altim30.00 29.99 29.99 30.00 30.02 30.02 30.04 30.04 30.04 30.04 30.04 30.03 30.02
VIS10 10 10 10 10 10 10 10 10 10 10 10 10
CIG-- -- -- -- -- -- -- -- -- -- -- -- --
CoverCLRCLRCLRCLRCLRCLRCLRCLRCLRFEWFEWCLRFEW
FltCatVFRVFRVFRVFRVFRVFRVFRVFRVFRVFRVFRVFRVFR
WX--------------------------
WDir0000000150170150140160140
WSpd0 0 0 0 0 0 0 3 6 9 10 9 10
WGst-- -- -- -- -- -- -- -- -- -- -- -- --
Raw hourly METARs
KGPT 150753Z AUTO 00000KT 10SM CLR 26/24 A3000 RMK AO2 SLP158 T02610239
KGPT 150853Z AUTO 00000KT 10SM CLR 26/24 A2999 RMK AO2 SLP155 T02560239 56006
KGPT 150953Z AUTO 00000KT 10SM CLR 26/24 A2999 RMK AO2 SLP156 T02560239
KGPT 151053Z 00000KT 10SM CLR 25/24 A3000 RMK AO2 SLP157 T02500239
KGPT 151153Z 00000KT 10SM CLR 26/24 A3002 RMK AO2 SLP165 T02560239 10272 20250 53009
KGPT 151253Z 00000KT 10SM CLR 28/24 A3002 RMK AO2 SLP166 T02830244
KGPT 151353Z 00000KT 10SM CLR 30/24 A3004 RMK AO2 SLP172 T03000239
KGPT 151453Z 15003KT 10SM CLR 31/24 A3004 RMK AO2 SLP172 T03060244 51008
KGPT 151553Z 17006KT 10SM CLR 32/25 A3004 RMK AO2 SLP172 T03170250
KGPT 151653Z 15009KT 10SM FEW022 32/25 A3004 RMK AO2 SLP173 T03170250
KGPT 151753Z 14010KT 10SM FEW025 32/24 A3004 RMK AO2 SLP172 T03220244 10328 20256 58001
KGPT 151853Z 16009KT 10SM CLR 32/23 A3003 RMK AO2 LTG DSNT W SLP168 T03220233
KGPT 151953Z 14010KT 10SM FEW025 33/24 A3002 RMK AO2 LTG DSNT N AND W SLP166 T03280244



Page loaded:  20:43 UTC  |   01:43 PM Pacific  |   02:43 PM Mountain  |   03:43 PM Central  |   04:43 PM Eastern

 

ADVISORIES

FORECASTS

FORECASTS

OBSERVATIONS

USER TOOLS

ABOUT US